Time;durP1;ratioP1;P1;durP2;ratioP2;P2;SDS_P1;SDS_P2;PMS_P1;PMS_P2;Temp;Humidity;BMP_temperature;BMP_pressure;BME280_temperature;BME280_humidity;BME280_pressure;Samples;Min_cycle;Max_cycle;Signal;HPM_P1;HPM_P2
2021/11/21 00:01:56;;;;;;;4.53;2.75;;;;;;;20.08;50.21;101273.00;5052535;28;20051;-65
2021/11/21 00:04:22;;;;;;;4.85;2.90;;;;;;;20.05;50.30;101276.00;5048388;28;20082;-66
2021/11/21 00:06:47;;;;;;;4.32;2.97;;;;;;;20.03;50.22;101276.16;5058226;28;20063;-66
2021/11/21 00:09:13;;;;;;;4.35;3.15;;;;;;;20.02;50.28;101268.41;5058638;28;20037;-65
2021/11/21 00:11:38;;;;;;;5.32;3.08;;;;;;;19.99;50.32;101266.13;5060736;28;20040;-65
2021/11/21 00:14:06;;;;;;;5.35;3.13;;;;;;;19.99;50.35;101255.53;5060225;28;20040;-66
2021/11/21 00:16:32;;;;;;;3.95;2.92;;;;;;;19.97;50.38;101252.25;5061367;28;20429;-65
2021/11/21 00:18:57;;;;;;;5.28;2.90;;;;;;;19.99;50.36;101259.00;5061686;28;20051;-66
2021/11/21 00:21:23;;;;;;;3.30;2.50;;;;;;;19.96;50.41;101246.13;5056603;28;20449;-66
2021/11/21 00:23:49;;;;;;;3.40;2.53;;;;;;;19.93;50.44;101251.78;5054150;28;20043;-65
2021/11/21 00:26:14;;;;;;;5.25;3.13;;;;;;;19.92;50.45;101253.56;5058576;28;20036;-66
2021/11/21 00:28:40;;;;;;;4.70;2.60;;;;;;;19.94;50.46;101242.84;5055598;28;20409;-66
2021/11/21 00:31:05;;;;;;;5.80;3.33;;;;;;;19.94;50.44;101234.09;5057699;28;20594;-66
2021/11/21 00:33:32;;;;;;;4.65;2.95;;;;;;;19.88;50.58;101235.56;5058403;28;20070;-66
2021/11/21 00:35:58;;;;;;;3.30;2.50;;;;;;;19.86;50.56;101227.81;5059443;28;20423;-66
2021/11/21 00:38:26;;;;;;;5.22;2.78;;;;;;;19.88;50.57;101232.94;5061719;28;20040;-66
2021/11/21 00:40:52;;;;;;;5.35;3.10;;;;;;;19.87;50.57;101228.63;5060141;28;20184;-66
2021/11/21 00:43:21;;;;;;;3.92;2.92;;;;;;;19.83;50.62;101219.41;5063491;28;20045;-66
2021/11/21 00:45:47;;;;;;;3.67;2.72;;;;;;;19.76;50.57;101208.72;5052521;28;20702;-66
2021/11/21 00:48:21;;;;;;;4.45;2.95;;;;;;;19.82;50.59;101213.31;5053480;28;20052;-66
2021/11/21 00:50:53;;;;;;;4.30;2.90;;;;;;;19.82;50.54;101212.47;5057833;28;20068;-66
2021/11/21 00:53:19;;;;;;;3.72;2.60;;;;;;;19.71;50.60;101194.34;5059831;28;20044;-65
2021/11/21 00:56:01;;;;;;;3.92;2.63;;;;;;;19.78;50.67;101216.47;5058762;28;20481;-66
2021/11/21 00:58:28;;;;;;;4.32;2.88;;;;;;;19.75;50.74;101207.06;5058284;28;20059;-65
2021/11/21 01:00:53;;;;;;;4.03;2.80;;;;;;;19.76;50.68;101205.25;5060139;28;20124;-66
2021/11/21 01:03:21;;;;;;;3.28;2.70;;;;;;;19.72;50.68;101202.09;5059683;28;20479;-66
2021/11/21 01:05:48;;;;;;;6.22;3.28;;;;;;;19.75;50.63;101191.22;5061019;28;20048;-66
2021/11/21 01:08:14;;;;;;;3.67;2.53;;;;;;;19.75;50.67;101188.56;5055338;28;20151;-66
2021/11/21 01:10:43;;;;;;;5.18;2.70;;;;;;;19.72;50.63;101182.78;5060535;28;20498;-66
2021/11/21 01:13:09;;;;;;;3.40;2.83;;;;;;;19.74;50.52;101184.25;5072701;28;20032;-66
2021/11/21 01:15:34;;;;;;;4.18;2.88;;;;;;;19.73;50.66;101182.59;5061756;28;20037;-66
2021/11/21 01:18:02;;;;;;;4.63;2.80;;;;;;;19.67;50.73;101178.00;5056967;28;20440;-66
2021/11/21 01:20:30;;;;;;;4.15;2.75;;;;;;;19.68;50.72;101169.09;5059099;28;20433;-66
2021/11/21 01:22:56;;;;;;;5.00;3.03;;;;;;;19.66;50.84;101173.72;5059663;28;20042;-65
2021/11/21 01:25:23;;;;;;;5.00;3.13;;;;;;;19.60;50.73;101169.13;5060174;28;20060;-66
2021/11/21 01:27:49;;;;;;;2.95;2.25;;;;;;;19.65;50.82;101176.53;5061630;28;20044;-66
2021/11/21 01:30:21;;;;;;;4.25;2.75;;;;;;;19.65;50.81;101176.53;5055388;28;20036;-66
2021/11/21 01:32:48;;;;;;;4.63;2.88;;;;;;;19.68;50.64;101173.53;5055793;28;20031;-66
2021/11/21 01:35:14;;;;;;;3.13;2.50;;;;;;;19.58;50.82;101171.94;5059171;28;20555;-66
2021/11/21 01:37:40;;;;;;;4.28;2.72;;;;;;;19.59;50.83;101178.03;5055642;28;20051;-66
2021/11/21 01:40:08;;;;;;;4.45;2.72;;;;;;;19.58;50.88;101169.28;5058341;28;20849;-66
2021/11/21 01:42:34;;;;;;;4.47;2.90;;;;;;;19.55;50.92;101172.25;5055327;28;20119;-66
2021/11/21 01:44:59;;;;;;;3.03;2.60;;;;;;;19.58;50.81;101177.22;5059434;28;20112;-66
2021/11/21 01:47:25;;;;;;;4.25;2.60;;;;;;;19.56;50.91;101173.91;5059198;28;20052;-66
2021/11/21 01:49:51;;;;;;;3.40;2.70;;;;;;;19.55;50.83;101166.16;5056879;28;20032;-65
2021/11/21 01:52:16;;;;;;;3.95;2.75;;;;;;;19.57;50.83;101161.53;5062119;28;20063;-65
2021/11/21 01:54:42;;;;;;;3.55;2.42;;;;;;;19.54;50.79;101154.75;5052745;28;20148;-65
2021/11/21 01:57:08;;;;;;;3.35;2.38;;;;;;;19.53;50.92;101160.19;5058619;28;20044;-66
2021/11/21 01:59:34;;;;;;;3.67;2.60;;;;;;;19.52;50.82;101163.81;5058683;28;20037;-66
2021/11/21 02:02:00;;;;;;;2.80;2.40;;;;;;;19.52;50.83;101164.63;5073168;28;20044;-66
2021/11/21 02:04:26;;;;;;;4.03;2.58;;;;;;;19.49;50.81;101159.69;5054976;28;20040;-65
2021/11/21 02:06:52;;;;;;;3.47;2.70;;;;;;;19.50;50.95;101160.53;5053781;28;20111;-66
2021/11/21 02:09:17;;;;;;;2.78;2.30;;;;;;;19.52;50.91;101158.53;5057759;28;20033;-65
2021/11/21 02:11:43;;;;;;;3.85;2.72;;;;;;;19.47;50.99;101158.22;5057828;28;20036;-66
2021/11/21 02:14:09;;;;;;;2.95;2.47;;;;;;;19.46;51.04;101146.00;5059645;28;20036;-66
2021/11/21 02:16:35;;;;;;;2.78;2.35;;;;;;;19.42;51.14;101142.88;5057135;28;20037;-66
2021/11/21 02:19:01;;;;;;;4.25;2.60;;;;;;;19.44;51.03;101140.91;5056671;28;20052;-66
2021/11/21 02:21:26;;;;;;;3.25;2.60;;;;;;;19.45;50.88;101136.44;5053381;28;20045;-66
2021/11/21 02:23:52;;;;;;;4.10;2.97;;;;;;;19.42;50.78;101129.69;5058497;28;20064;-66
2021/11/21 02:26:18;;;;;;;3.05;2.40;;;;;;;19.44;50.89;101132.16;5073915;28;20558;-65
2021/11/21 02:28:46;;;;;;;2.95;2.22;;;;;;;19.34;51.03;101121.78;5059431;28;20044;-66
2021/11/21 02:31:12;;;;;;;3.17;2.50;;;;;;;19.42;51.07;101136.78;5060744;28;20044;-66
2021/11/21 02:33:39;;;;;;;3.72;2.50;;;;;;;19.40;51.12;101141.41;5055837;28;20125;-65
2021/11/21 02:36:06;;;;;;;3.53;2.60;;;;;;;19.40;51.20;101136.13;5050770;28;20041;-66
2021/11/21 02:38:32;;;;;;;2.83;2.35;;;;;;;19.41;50.94;101140.44;5055493;28;20047;-66
2021/11/21 02:41:01;;;;;;;3.25;2.50;;;;;;;19.37;51.03;101141.72;5056887;28;20048;-66
2021/11/21 02:43:27;;;;;;;3.30;2.60;;;;;;;19.35;51.13;101133.16;5055353;28;20574;-65
2021/11/21 02:45:55;;;;;;;2.97;2.60;;;;;;;19.38;51.19;101143.38;5055232;28;20024;-65
2021/11/21 02:48:25;;;;;;;3.45;2.75;;;;;;;19.33;51.13;101144.72;5056255;28;20063;-66
2021/11/21 02:50:52;;;;;;;3.38;2.72;;;;;;;19.32;51.10;101145.72;5058769;28;20037;-66
2021/11/21 02:53:19;;;;;;;2.83;2.50;;;;;;;19.32;51.07;101136.97;5057303;28;20121;-66
2021/11/21 02:55:45;;;;;;;3.15;2.60;;;;;;;19.33;51.20;101139.44;5058032;28;20098;-66
2021/11/21 02:58:11;;;;;;;3.13;2.33;;;;;;;19.33;50.97;101136.78;5056083;28;20032;-66
2021/11/21 03:00:39;;;;;;;3.95;2.45;;;;;;;19.32;51.10;101136.97;5051837;28;20474;-65
2021/11/21 03:03:05;;;;;;;4.20;2.50;;;;;;;19.31;51.18;101128.22;5053398;28;20488;-66
2021/11/21 03:05:35;;;;;;;2.35;2.10;;;;;;;19.31;51.21;101122.13;5053958;28;20060;-66
2021/11/21 03:08:00;;;;;;;3.25;2.40;;;;;;;19.28;51.11;101120.63;5056701;28;20074;-65
2021/11/21 03:10:28;;;;;;;2.38;2.10;;;;;;;19.30;51.21;101109.91;5058648;28;20044;-66
2021/11/21 03:12:58;;;;;;;2.97;2.42;;;;;;;19.31;50.99;101117.66;5056857;28;20044;-66
2021/11/21 03:15:25;;;;;;;2.55;2.35;;;;;;;19.28;51.05;101114.53;5057005;28;20037;-65
2021/11/21 03:17:51;;;;;;;3.15;2.20;;;;;;;19.26;51.14;101112.06;5060129;28;20058;-66
2021/11/21 03:20:20;;;;;;;2.90;2.20;;;;;;;19.27;51.09;101115.53;5058490;28;20398;-65
2021/11/21 03:22:46;;;;;;;2.80;2.38;;;;;;;19.27;51.22;101116.34;5053680;28;20043;-66
2021/11/21 03:25:12;;;;;;;3.70;2.15;;;;;;;19.25;50.90;101120.97;5048561;28;20043;-65
2021/11/21 03:27:38;;;;;;;2.50;2.08;;;;;;;19.24;51.21;101113.22;5057958;28;20024;-66
2021/11/21 03:30:06;;;;;;;3.72;2.40;;;;;;;19.25;51.19;101115.69;5054593;28;20403;-66
2021/11/21 03:32:31;;;;;;;2.42;2.20;;;;;;;19.22;51.28;101108.13;5056258;28;20119;-66
2021/11/21 03:34:57;;;;;;;3.10;2.42;;;;;;;19.23;51.24;101114.22;5056436;28;20094;-66
2021/11/21 03:37:23;;;;;;;2.92;2.38;;;;;;;19.17;50.99;101099.88;5056970;28;20024;-66
2021/11/21 03:39:49;;;;;;;2.30;2.00;;;;;;;19.19;51.23;101100.50;5057619;28;20041;-65
2021/11/21 03:42:15;;;;;;;2.60;2.00;;;;;;;19.25;51.05;101109.59;5061069;28;20052;-66
2021/11/21 03:44:41;;;;;;;3.00;2.15;;;;;;;19.23;51.09;101108.94;5063749;28;20036;-66
2021/11/21 03:47:06;;;;;;;2.92;2.10;;;;;;;19.21;51.02;101111.75;5050902;28;20079;-66
2021/11/21 03:49:32;;;;;;;2.33;2.13;;;;;;;19.19;51.20;101119.00;5054983;28;20103;-66
2021/11/21 03:51:57;;;;;;;3.15;2.25;;;;;;;19.20;51.17;101125.09;5055610;28;20147;-65
2021/11/21 03:54:23;;;;;;;2.50;1.95;;;;;;;19.22;51.13;101112.59;5059232;28;20044;-66
2021/11/21 03:56:48;;;;;;;3.88;2.30;;;;;;;19.20;51.10;101110.06;5061427;28;20044;-66
2021/11/21 03:59:14;;;;;;;2.42;2.00;;;;;;;19.20;51.12;101117.19;5057851;28;20041;-66
2021/11/21 04:01:39;;;;;;;2.33;1.80;;;;;;;19.20;51.09;101110.06;5090863;28;20087;-66
2021/11/21 04:04:06;;;;;;;2.97;2.00;;;;;;;19.19;51.20;101107.63;5063432;28;20132;-66
2021/11/21 04:06:35;;;;;;;2.42;2.10;;;;;;;19.15;51.26;101111.59;5060186;28;20606;-66
2021/11/21 04:09:00;;;;;;;2.67;1.83;;;;;;;19.11;51.33;101113.75;5058044;28;20383;-66
2021/11/21 04:11:26;;;;;;;2.28;1.90;;;;;;;19.14;51.25;101100.22;5051249;28;20029;-66
2021/11/21 04:13:52;;;;;;;2.78;2.17;;;;;;;19.17;51.10;101114.88;5054554;28;20040;-66
2021/11/21 04:16:17;;;;;;;3.03;2.00;;;;;;;19.15;51.16;101106.31;5060143;28;20040;-65
2021/11/21 04:18:43;;;;;;;3.05;2.08;;;;;;;19.11;51.30;101108.47;5055429;28;20045;-66
2021/11/21 04:21:09;;;;;;;2.47;1.98;;;;;;;19.16;51.06;101115.88;5057441;28;20643;-65
2021/11/21 04:23:35;;;;;;;3.08;2.10;;;;;;;19.11;51.18;101112.91;5059588;28;20051;-66
2021/11/21 04:26:01;;;;;;;3.20;2.05;;;;;;;19.09;51.21;101113.09;5058674;28;20036;-66
2021/11/21 04:28:27;;;;;;;3.03;2.13;;;;;;;19.10;51.25;101111.28;5076626;28;20401;-66
2021/11/21 04:30:54;;;;;;;1.80;1.70;;;;;;;19.10;51.17;101112.09;5061334;28;20063;-66
2021/11/21 04:33:21;;;;;;;3.15;1.95;;;;;;;19.09;51.27;101110.44;5049793;28;20040;-66
2021/11/21 04:35:49;;;;;;;2.33;1.92;;;;;;;19.06;51.26;101107.31;5054260;28;20220;-66
2021/11/21 04:38:15;;;;;;;3.00;2.00;;;;;;;19.06;51.23;101109.97;5060188;28;20098;-66
2021/11/21 04:40:42;;;;;;;2.25;1.83;;;;;;;19.08;51.25;101108.81;5054905;28;20127;-66
2021/11/21 04:43:07;;;;;;;3.05;2.10;;;;;;;19.09;51.21;101114.91;5057515;28;20080;-66
2021/11/21 04:45:33;;;;;;;2.08;1.75;;;;;;;19.02;51.44;101110.28;5057972;28;20568;-66
2021/11/21 04:47:58;;;;;;;2.33;2.00;;;;;;;19.05;51.31;101117.06;5061731;28;20060;-66
2021/11/21 04:50:24;;;;;;;2.53;1.83;;;;;;;19.08;51.17;101110.63;5059634;28;20094;-66
2021/11/21 04:52:49;;;;;;;2.60;2.00;;;;;;;19.12;51.07;101104.84;5060893;28;20168;-66
2021/11/21 04:55:15;;;;;;;2.88;1.92;;;;;;;19.20;50.99;101101.34;5062614;28;20037;-66
2021/11/21 04:57:42;;;;;;;3.00;1.70;;;;;;;19.25;50.80;101105.13;5056860;28;20052;-66
2021/11/21 05:00:15;;;;;;;2.33;1.63;;;;;;;19.31;50.67;101099.16;5075595;28;20036;-66
2021/11/21 05:02:42;;;;;;;2.50;1.60;;;;;;;19.42;50.56;101102.47;5050834;28;20623;-66
2021/11/21 05:05:09;;;;;;;2.10;1.60;;;;;;;19.53;50.37;101104.72;5059306;28;20108;-66
2021/11/21 05:07:34;;;;;;;1.90;1.67;;;;;;;19.63;50.06;101102.72;5056131;28;20047;-67
2021/11/21 05:10:00;;;;;;;1.95;1.65;;;;;;;19.75;50.05;101109.28;5061788;28;20428;-66
2021/11/21 05:12:25;;;;;;;2.10;1.75;;;;;;;19.84;49.95;101100.31;5056830;28;20033;-66
2021/11/21 05:14:53;;;;;;;2.65;1.80;;;;;;;19.96;49.85;101098.13;5060056;28;20055;-66
2021/11/21 05:17:19;;;;;;;2.58;1.55;;;;;;;20.06;49.82;101088.13;5060255;28;20087;-66
2021/11/21 05:19:45;;;;;;;1.55;1.45;;;;;;;20.17;49.69;101093.03;5061426;28;20052;-66
2021/11/21 05:22:11;;;;;;;1.63;1.33;;;;;;;20.28;49.53;101097.06;5059385;28;20390;-66
2021/11/21 05:24:37;;;;;;;3.00;1.40;;;;;;;20.33;49.47;101093.91;5055629;28;20044;-66
2021/11/21 05:27:03;;;;;;;1.73;1.35;;;;;;;20.38;49.38;101092.38;5057655;28;20076;-66
2021/11/21 05:29:28;;;;;;;2.65;1.60;;;;;;;20.41;49.45;101097.34;5056391;28;20033;-66
2021/11/21 05:31:54;;;;;;;1.77;1.33;;;;;;;20.43;49.39;101097.16;5056338;28;20075;-66
2021/11/21 05:34:19;;;;;;;1.73;1.45;;;;;;;20.45;49.42;101095.97;5055864;28;20049;-66
2021/11/21 05:36:45;;;;;;;2.13;1.63;;;;;;;20.46;49.34;101096.81;5059212;28;20063;-66
2021/11/21 05:39:11;;;;;;;2.35;1.33;;;;;;;20.45;49.48;101108.38;5060746;28;20472;-66
2021/11/21 05:41:36;;;;;;;1.65;1.40;;;;;;;20.44;49.46;101104.91;5059684;28;20078;-66
2021/11/21 05:44:03;;;;;;;2.33;1.60;;;;;;;20.42;49.52;101106.09;5058089;28;20056;-66
2021/11/21 05:46:28;;;;;;;2.53;1.35;;;;;;;20.43;49.46;101103.28;5058708;28;20119;-66
2021/11/21 05:48:54;;;;;;;1.27;1.17;;;;;;;20.44;49.34;101102.28;5051663;28;20044;-66
2021/11/21 05:51:20;;;;;;;1.48;1.35;;;;;;;20.41;49.69;101102.63;5053155;28;20067;-66
2021/11/21 05:53:45;;;;;;;2.40;1.40;;;;;;;20.38;49.49;101105.59;5056626;28;20089;-66
2021/11/21 05:56:11;;;;;;;1.73;1.40;;;;;;;20.39;49.60;101109.88;5054287;28;20040;-66
2021/11/21 05:58:36;;;;;;;3.17;1.42;;;;;;;20.33;49.72;101105.31;5056345;28;20044;-66
2021/11/21 06:01:02;;;;;;;1.98;1.33;;;;;;;20.38;49.42;101102.97;5055789;28;20047;-66
2021/11/21 06:03:28;;;;;;;2.60;1.48;;;;;;;20.30;49.45;101095.09;5058623;28;20048;-66
2021/11/21 06:05:53;;;;;;;2.35;1.25;;;;;;;20.38;49.53;101110.91;5059155;28;20049;-66
2021/11/21 06:08:19;;;;;;;1.83;1.10;;;;;;;20.37;49.41;101111.91;5061264;28;20383;-66
2021/11/21 06:10:45;;;;;;;1.98;1.60;;;;;;;20.37;49.45;101108.44;5055371;28;20371;-66
2021/11/21 06:13:11;;;;;;;1.75;1.50;;;;;;;20.36;49.39;101102.31;5056865;28;20036;-66
2021/11/21 06:15:37;;;;;;;2.58;1.58;;;;;;;20.33;49.43;101107.13;5051508;28;20128;-66
2021/11/21 06:18:04;;;;;;;3.10;1.75;;;;;;;20.29;49.39;101101.38;5050602;28;20139;-66
2021/11/21 06:20:30;;;;;;;2.22;1.35;;;;;;;20.28;49.47;101098.88;5055940;28;20701;-66
2021/11/21 06:22:56;;;;;;;1.30;1.00;;;;;;;20.23;49.57;101108.19;5058222;28;20052;-66
2021/11/21 06:25:22;;;;;;;2.17;1.25;;;;;;;20.23;49.54;101099.41;5059797;28;20548;-66
2021/11/21 06:27:47;;;;;;;2.05;1.38;;;;;;;20.27;49.36;101105.19;5057619;28;20052;-66
2021/11/21 06:30:13;;;;;;;1.80;1.40;;;;;;;20.28;49.32;101094.41;5057606;28;20036;-66
2021/11/21 06:32:39;;;;;;;2.72;1.45;;;;;;;20.32;49.27;101098.38;5055877;28;20044;-66
2021/11/21 06:35:06;;;;;;;1.10;0.90;;;;;;;20.37;49.26;101101.31;5052340;28;20478;-66
2021/11/21 06:37:32;;;;;;;3.05;1.30;;;;;;;20.38;49.21;101105.59;5050758;28;20056;-66
2021/11/21 06:39:57;;;;;;;1.48;1.25;;;;;;;20.44;49.26;101104.09;5059703;28;20048;-66
2021/11/21 06:42:23;;;;;;;1.75;1.20;;;;;;;20.46;49.01;101097.63;5053046;28;20031;-66
2021/11/21 06:44:48;;;;;;;1.27;1.17;;;;;;;20.50;48.97;101109.53;5055131;28;20041;-66
2021/11/21 06:47:15;;;;;;;2.75;1.38;;;;;;;20.56;49.17;101096.56;5055507;28;20044;-66
2021/11/21 06:49:41;;;;;;;1.25;1.15;;;;;;;20.58;48.88;101100.69;5053769;28;20036;-66
2021/11/21 06:52:07;;;;;;;1.23;1.05;;;;;;;20.56;48.97;101086.81;5057182;28;20468;-66
2021/11/21 06:54:33;;;;;;;1.73;1.15;;;;;;;20.61;48.94;101094.22;5060065;28;20561;-66
2021/11/21 06:56:59;;;;;;;2.03;1.40;;;;;;;20.59;48.96;101085.63;5061541;28;20051;-66
2021/11/21 06:59:25;;;;;;;1.48;1.30;;;;;;;20.59;48.99;101083.81;5053522;28;20742;-66
2021/11/21 07:01:50;;;;;;;2.08;1.20;;;;;;;20.59;49.02;101101.50;5049495;28;20036;-66
2021/11/21 07:04:16;;;;;;;1.73;1.02;;;;;;;20.58;49.04;101097.22;5052953;28;20035;-66
2021/11/21 07:06:43;;;;;;;3.92;1.33;;;;;;;20.54;49.17;101101.22;5053905;28;20037;-65
2021/11/21 07:09:11;;;;;;;1.95;1.20;;;;;;;20.56;49.10;101107.16;5056403;28;20064;-66
2021/11/21 07:11:38;;;;;;;1.52;1.00;;;;;;;20.53;49.19;101113.63;5054931;28;20129;-66
2021/11/21 07:14:05;;;;;;;2.10;1.30;;;;;;;20.52;49.24;101106.69;5055083;28;20024;-65
2021/11/21 07:16:31;;;;;;;1.23;1.00;;;;;;;20.51;49.13;101107.69;5058495;28;20079;-66
2021/11/21 07:18:57;;;;;;;1.35;1.20;;;;;;;20.51;48.99;101107.69;5060082;28;20032;-66
2021/11/21 07:21:23;;;;;;;1.75;0.88;;;;;;;20.51;49.00;101105.06;5057810;28;20136;-66
2021/11/21 07:23:48;;;;;;;2.92;1.23;;;;;;;20.46;49.08;101108.19;5052223;28;20041;-66
2021/11/21 07:26:14;;;;;;;1.95;1.05;;;;;;;20.46;49.01;101115.31;5057950;28;20044;-65
2021/11/21 07:28:40;;;;;;;1.38;1.08;;;;;;;20.44;49.10;101123.44;5054115;28;20087;-65
2021/11/21 07:31:07;;;;;;;3.72;1.38;;;;;;;20.45;49.13;101121.59;5051285;28;20029;-66
2021/11/21 07:33:33;;;;;;;3.90;1.15;;;;;;;20.39;49.09;101115.19;5053358;28;20055;-66
2021/11/21 07:35:58;;;;;;;2.05;1.25;;;;;;;20.46;49.13;101118.78;5053861;28;20048;-66
2021/11/21 07:38:24;;;;;;;1.50;1.20;;;;;;;20.46;49.01;101123.25;5055952;28;20042;-65
2021/11/21 07:40:52;;;;;;;1.52;1.10;;;;;;;20.46;48.95;101123.25;5058884;28;20043;-66
2021/11/21 07:43:19;;;;;;;1.48;1.05;;;;;;;20.48;49.08;101124.75;5058709;28;20136;-65
2021/11/21 07:45:45;;;;;;;2.90;1.10;;;;;;;20.54;48.83;101127.69;5059790;28;20840;-66
2021/11/21 07:48:10;;;;;;;1.77;1.02;;;;;;;20.52;48.92;101118.09;5051085;28;20032;-66
2021/11/21 07:50:36;;;;;;;2.33;1.38;;;;;;;20.61;48.82;101131.25;5053130;28;20045;-66
2021/11/21 07:53:02;;;;;;;2.80;1.38;;;;;;;20.63;48.92;101129.25;5059134;28;20051;-65
2021/11/21 07:55:27;;;;;;;2.75;1.08;;;;;;;20.63;48.84;101129.25;5056427;28;20036;-66
2021/11/21 07:57:53;;;;;;;1.55;1.30;;;;;;;20.61;48.91;101126.78;5057985;28;20600;-66
2021/11/21 08:00:18;;;;;;;1.90;0.80;;;;;;;20.61;49.05;101134.72;5058051;28;20037;-66
2021/11/21 08:02:44;;;;;;;2.00;1.08;;;;;;;20.58;48.89;101121.84;5058286;28;20037;-66
2021/11/21 08:05:10;;;;;;;1.27;1.00;;;;;;;20.60;49.09;101141.00;5057836;28;20040;-66
2021/11/21 08:07:37;;;;;;;1.58;1.27;;;;;;;20.61;48.94;101133.91;5060376;28;20091;-65
2021/11/21 08:10:04;;;;;;;1.95;1.15;;;;;;;20.60;48.87;101142.84;5058000;28;20545;-65
2021/11/21 08:12:30;;;;;;;2.47;0.90;;;;;;;20.60;48.93;101141.00;5060108;28;20127;-66
2021/11/21 08:14:55;;;;;;;1.85;1.13;;;;;;;20.62;48.77;101135.53;5058468;28;20120;-66
2021/11/21 08:17:21;;;;;;;2.63;0.95;;;;;;;20.59;48.66;101138.53;5060877;28;20036;-65
2021/11/21 08:19:46;;;;;;;3.30;1.30;;;;;;;20.55;48.81;101139.91;5059356;28;20533;-65
2021/11/21 08:22:13;;;;;;;1.45;1.20;;;;;;;20.55;48.79;101143.38;5060242;28;20056;-65
2021/11/21 08:24:38;;;;;;;1.80;1.20;;;;;;;20.49;48.70;101138.81;5058631;28;20060;-66
2021/11/21 08:27:04;;;;;;;3.88;1.20;;;;;;;20.51;48.88;101140.25;5057809;28;20048;-66
2021/11/21 08:29:30;;;;;;;3.95;1.30;;;;;;;20.49;48.71;101144.09;5063397;28;20043;-66
2021/11/21 08:31:56;;;;;;;2.05;1.40;;;;;;;20.52;48.66;101146.38;5060608;28;20033;-66
2021/11/21 08:34:22;;;;;;;2.03;0.88;;;;;;;20.52;48.77;101154.31;5057824;28;20048;-65
2021/11/21 08:36:49;;;;;;;2.55;1.20;;;;;;;20.49;48.93;101149.38;5053493;28;20393;-66
2021/11/21 08:39:16;;;;;;;2.67;1.20;;;;;;;20.52;48.76;101141.09;5056780;28;20044;-66
2021/11/21 08:41:42;;;;;;;2.33;1.10;;;;;;;20.53;48.79;101148.03;5056294;28;20052;-65
2021/11/21 08:44:08;;;;;;;1.75;1.00;;;;;;;20.56;48.77;101147.66;5061728;28;20032;-66
2021/11/21 08:46:34;;;;;;;1.92;1.52;;;;;;;20.56;48.74;101146.84;5062241;28;20126;-65
2021/11/21 08:48:59;;;;;;;1.50;1.15;;;;;;;20.59;48.67;101149.94;5060835;28;20123;-65
2021/11/21 08:51:25;;;;;;;2.60;1.13;;;;;;;20.62;48.78;101167.28;5061905;28;20032;-66
2021/11/21 08:53:51;;;;;;;2.70;1.30;;;;;;;20.60;48.66;101156.06;5060245;28;20036;-66
2021/11/21 08:56:16;;;;;;;2.35;1.30;;;;;;;20.65;48.50;101157.19;5052223;28;20036;-65
2021/11/21 08:58:43;;;;;;;4.65;1.48;;;;;;;20.65;48.70;101164.31;5057344;28;20048;-65
2021/11/21 09:01:09;;;;;;;3.35;1.42;;;;;;;20.63;48.60;101161.00;5058225;28;20040;-65
2021/11/21 09:03:35;;;;;;;2.58;1.40;;;;;;;20.56;48.84;101154.78;5061349;28;20056;-65
2021/11/21 09:06:02;;;;;;;4.13;1.55;;;;;;;20.61;48.70;101160.34;5063776;28;20039;-66
2021/11/21 09:08:28;;;;;;;4.63;1.23;;;;;;;20.61;48.51;101158.53;5061723;28;20052;-66
2021/11/21 09:10:55;;;;;;;1.17;0.98;;;;;;;20.67;48.58;101164.97;5060084;28;20082;-65
2021/11/21 09:13:21;;;;;;;2.15;1.10;;;;;;;20.67;48.58;101162.31;5058338;28;20640;-66
2021/11/21 09:15:47;;;;;;;2.47;1.42;;;;;;;20.68;48.49;101166.59;5055583;28;20048;-66
2021/11/21 09:18:13;;;;;;;2.72;1.55;;;;;;;20.69;48.58;101165.59;5056304;28;20123;-66
2021/11/21 09:20:38;;;;;;;2.67;1.35;;;;;;;20.67;48.44;101165.78;5062874;28;20040;-66
2021/11/21 09:23:09;;;;;;;6.47;1.73;;;;;;;20.66;48.58;101158.84;5059512;28;20032;-65
2021/11/21 09:25:35;;;;;;;3.40;1.35;;;;;;;20.64;48.37;101162.66;5055084;28;20080;-66
2021/11/21 09:28:00;;;;;;;1.80;1.35;;;;;;;20.66;48.22;101158.84;5058734;28;20127;-65
2021/11/21 09:30:27;;;;;;;3.05;1.60;;;;;;;20.65;48.37;101164.31;5063803;28;20099;-65
2021/11/21 09:32:53;;;;;;;2.60;1.30;;;;;;;20.66;48.36;101171.25;5063356;28;20363;-65
2021/11/21 09:35:19;;;;;;;4.95;1.85;;;;;;;20.63;48.16;101164.47;5060523;28;20394;-65
2021/11/21 09:37:45;;;;;;;1.83;1.13;;;;;;;20.63;48.32;101163.66;5061926;28;20607;-66
2021/11/21 09:40:13;;;;;;;2.92;1.27;;;;;;;20.63;48.20;101163.66;5054719;28;20036;-65
2021/11/21 09:42:39;;;;;;;2.95;1.40;;;;;;;20.59;48.10;101163.19;5056663;28;20029;-65
2021/11/21 09:45:06;;;;;;;2.95;1.63;;;;;;;20.60;48.21;101166.66;5058899;28;20033;-64
2021/11/21 09:47:32;;;;;;;2.45;1.30;;;;;;;20.59;48.35;101172.94;5054564;28;20057;-66
2021/11/21 09:50:01;;;;;;;2.40;1.40;;;;;;;20.61;48.44;101163.81;5058175;28;20044;-65
2021/11/21 09:52:26;;;;;;;2.17;1.20;;;;;;;20.60;48.26;101164.81;5057186;28;20029;-65
2021/11/21 09:54:52;;;;;;;2.42;0.98;;;;;;;20.55;48.25;101151.31;5060284;28;20145;-66
2021/11/21 09:57:17;;;;;;;1.77;1.13;;;;;;;20.65;48.28;101159.84;5060638;28;20202;-66
2021/11/21 09:59:59;;;;;;;2.22;1.48;;;;;;;20.71;48.13;101160.97;5062005;28;21866;-66
2021/11/21 10:02:30;;;;;;;3.28;1.63;;;;;;;20.74;48.05;101161.41;5059830;28;21821;-66
2021/11/21 10:04:58;;;;;;;2.78;1.40;;;;;;;20.78;47.99;101161.88;5035973;28;20133;-66
2021/11/21 10:07:28;;;;;;;1.85;1.02;;;;;;;20.88;47.94;101164.28;5046380;28;20644;-67
2021/11/21 10:09:54;;;;;;;;;;;;;;;20.92;48.37;101163.75;5056556;28;20075;-67
2021/11/21 10:12:19;;;;;;;3.50;1.35;;;;;;;21.00;48.29;101158.38;5056827;28;20313;-65
2021/11/21 10:15:15;;;;;;;3.17;1.77;;;;;;;21.10;48.53;101155.47;5060798;28;20728;-65
2021/11/21 10:17:47;;;;;;;6.05;1.88;;;;;;;21.07;48.36;101159.31;5058532;28;20058;-64
2021/11/21 10:20:26;;;;;;;3.28;1.30;;;;;;;21.08;47.72;101155.66;5025362;28;24556;-66
2021/11/21 10:23:04;;;;;;;4.20;1.38;;;;;;;21.18;47.88;101163.34;5041877;28;20048;-66
2021/11/21 10:25:33;;;;;;;4.25;1.95;;;;;;;21.22;48.02;101169.94;5058078;28;20739;-66
2021/11/21 10:28:22;;;;;;;3.95;1.50;;;;;;;21.31;47.94;101174.16;5057225;28;20055;-66
2021/11/21 10:30:57;;;;;;;3.17;1.45;;;;;;;21.35;48.48;101166.69;5051779;28;20080;-66
2021/11/21 10:33:28;;;;;;;1.38;1.15;;;;;;;21.32;47.80;101167.88;5048126;28;20720;-66
2021/11/21 10:35:58;;;;;;;3.55;1.67;;;;;;;21.33;47.78;101168.69;5056548;28;20082;-67
2021/11/21 10:38:42;;;;;;;2.90;0.90;;;;;;;21.43;47.20;101166.63;5022950;28;20191;-68
2021/11/21 10:41:19;;;;;;;2.97;1.77;;;;;;;21.47;47.23;101167.06;5060121;28;20044;-67
2021/11/21 10:43:58;;;;;;;1.83;1.20;;;;;;;21.51;47.34;101168.34;5033333;28;20039;-67
2021/11/21 10:46:36;;;;;;;2.38;1.38;;;;;;;21.60;47.23;101170.72;5057870;28;20042;-69
2021/11/21 10:49:36;;;;;;;2.60;1.38;;;;;;;21.69;47.24;101166.97;5029692;28;20040;-66
2021/11/21 10:52:17;;;;;;;2.28;1.33;;;;;;;21.71;47.16;101164.13;5049360;28;20040;-68
2021/11/21 10:54:52;;;;;;;1.55;1.02;;;;;;;21.73;47.17;101162.13;5025682;28;20040;-67
2021/11/21 10:57:34;;;;;;;2.55;1.20;;;;;;;21.71;46.92;101154.34;5055744;28;20555;-68
2021/11/21 11:00:06;;;;;;;2.97;0.85;;;;;;;21.77;47.53;101158.09;5036045;28;21082;-66
2021/11/21 11:02:40;;;;;;;3.80;1.33;;;;;;;21.75;47.10;101159.31;5058492;28;20516;-68
2021/11/21 11:05:06;;;;;;;2.58;1.33;;;;;;;21.73;46.70;101162.13;5030072;28;20048;-69
2021/11/21 11:07:35;;;;;;;5.93;2.10;;;;;;;21.74;46.37;101158.47;5067329;28;20410;-67
2021/11/21 11:10:05;;;;;;;4.68;1.40;;;;;;;21.73;46.37;101140.13;5033390;28;20642;-67
2021/11/21 11:12:30;;;;;;;4.25;1.58;;;;;;;21.76;46.55;101174.19;5050515;28;20039;-66
2021/11/21 11:14:57;;;;;;;1.85;1.25;;;;;;;21.66;46.64;101169.16;5058001;28;20079;-65
2021/11/21 11:17:27;;;;;;;4.53;1.60;;;;;;;21.61;46.44;101172.38;5031966;28;20538;-65
2021/11/21 11:19:58;;;;;;;4.00;1.88;;;;;;;21.59;46.36;101171.75;5055010;28;20048;-65
2021/11/21 11:22:25;;;;;;;6.57;2.13;;;;;;;21.60;46.06;101167.25;5045782;28;20041;-65
2021/11/21 11:24:54;;;;;;;3.80;1.40;;;;;;;21.57;45.95;101167.63;5057670;28;20033;-65